SVBS/MYC METAR and TAF weather

Enter ICAO airport designator
Station Type Date Time Source
SVBS METAR 2018/12/06 16:00 UTC NOAA

SVBS 061600Z /////KT 9999 SCT013 30/21 Q1017


Station Type Date Time Source
SVBS Decoded METAR 2018/12/06 16:00 UTC NOAA

Maracay-B. A. Sucre, Venezuela (SVBS) 10-15N 067-39W 437M
Dec 06, 2018 - 11:00 AM EST / 2018.12.06 1600 UTC
Visibility: greater than 7 mile(s):0
Sky conditions: partly cloudy
Temperature: 86 F (30 C)
Dew Point: 69 F (21 C)
Relative Humidity: 58%
Pressure (altimeter): 30.03 in. Hg (1017 hPa)
ob: SVBS 061600Z /////KT 9999 SCT013 30/21 Q1017
cycle: 16

Station Type Date Time Source
SVBS TAF 2018/01/16 06:46 UTC NOAA

TAF SVBS 160400Z 1606/1706 00000KT 9999 FEW010 SCT070 TX33/18Z TN25/08Z
FM160800 00000KT 9999 FEW010


Example: see airport list